createdAt,value
2022-09-14T00:01:34.617Z,20.20
2022-09-14T00:04:10.823Z,20.00
2022-09-14T00:06:37.963Z,20.10
2022-09-14T00:09:10.943Z,20.11
2022-09-14T00:11:38.038Z,20.09
2022-09-14T00:14:06.213Z,20.07
2022-09-14T00:16:37.114Z,20.10
2022-09-14T00:19:07.887Z,20.13
2022-09-14T00:21:37.730Z,20.16
2022-09-14T00:24:07.154Z,20.14
2022-09-14T00:26:34.499Z,20.20
2022-09-14T00:29:05.102Z,20.13
2022-09-14T00:31:35.514Z,20.08
2022-09-14T00:34:03.168Z,19.95
2022-09-14T00:36:31.783Z,20.05
2022-09-14T00:39:00.529Z,20.09
2022-09-14T00:41:32.437Z,20.09
2022-09-14T00:44:28.147Z,20.14
2022-09-14T00:46:58.623Z,20.18
2022-09-14T00:49:34.159Z,20.20
2022-09-14T00:52:19.371Z,20.19
2022-09-14T00:54:49.914Z,20.21
2022-09-14T00:57:18.458Z,20.17
2022-09-14T00:59:48.990Z,20.18
2022-09-14T01:02:16.915Z,20.18
2022-09-14T01:04:44.279Z,20.10
2022-09-14T01:07:47.923Z,19.99
2022-09-14T01:10:51.938Z,19.92
2022-09-14T01:13:57.360Z,19.91
2022-09-14T01:17:28.356Z,19.96
2022-09-14T01:20:22.270Z,19.91
2022-09-14T01:23:42.890Z,19.92
2022-09-14T01:26:33.718Z,19.89
2022-09-14T01:29:30.839Z,19.88
2022-09-14T01:32:26.193Z,19.81
2022-09-14T01:35:07.895Z,19.97
2022-09-14T01:38:03.862Z,20.06
2022-09-14T01:40:36.780Z,20.01
2022-09-14T01:43:36.676Z,19.98
2022-09-14T01:46:13.568Z,20.01
2022-09-14T01:49:03.168Z,20.01
2022-09-14T01:51:46.502Z,20.12
2022-09-14T01:54:34.252Z,20.10
2022-09-14T01:57:22.471Z,20.03
2022-09-14T01:59:54.494Z,20.00
2022-09-14T02:02:30.820Z,20.14
2022-09-14T02:05:07.647Z,20.12
2022-09-14T02:07:37.068Z,20.24
2022-09-14T02:10:08.451Z,20.12
2022-09-14T02:12:36.243Z,20.08
2022-09-14T02:15:04.820Z,20.00
2022-09-14T02:17:31.680Z,20.13
2022-09-14T02:20:02.125Z,20.22
2022-09-14T02:22:30.803Z,20.26
2022-09-14T02:24:58.281Z,20.30
2022-09-14T02:27:25.624Z,20.32
2022-09-14T02:29:53.065Z,20.37
2022-09-14T02:32:47.599Z,20.38
2022-09-14T02:35:32.010Z,20.37
2022-09-14T02:38:40.584Z,20.30
2022-09-14T02:41:41.986Z,20.31
2022-09-14T02:44:45.814Z,20.37
2022-09-14T02:47:23.895Z,20.28
2022-09-14T02:50:17.998Z,20.27
2022-09-14T02:53:01.116Z,20.17
2022-09-14T02:55:35.682Z,20.15
2022-09-14T02:58:10.210Z,20.03
2022-09-14T03:00:46.617Z,20.04
2022-09-14T03:03:17.488Z,19.96
2022-09-14T03:05:44.534Z,20.02
2022-09-14T03:08:12.054Z,19.97
2022-09-14T03:10:42.209Z,19.82
2022-09-14T03:13:09.043Z,19.74
2022-09-14T03:15:35.886Z,19.80
2022-09-14T03:18:02.622Z,19.83
2022-09-14T03:20:32.583Z,19.89
2022-09-14T03:23:00.699Z,19.95
2022-09-14T03:25:28.652Z,19.92
2022-09-14T03:27:59.947Z,19.87
2022-09-14T03:30:27.874Z,19.89
2022-09-14T03:32:54.830Z,19.78
2022-09-14T03:35:21.635Z,19.83
2022-09-14T03:37:48.415Z,19.86
2022-09-14T03:40:21.676Z,19.83
2022-09-14T03:42:50.819Z,19.84
2022-09-14T03:45:18.969Z,19.89
2022-09-14T03:47:46.819Z,19.86
2022-09-14T03:50:15.203Z,19.86
2022-09-14T03:52:42.067Z,19.88
2022-09-14T03:55:09.591Z,19.88
2022-09-14T03:57:36.403Z,19.87
2022-09-14T04:00:06.565Z,19.88
2022-09-14T04:02:33.490Z,19.86
2022-09-14T04:05:00.333Z,19.93
2022-09-14T04:07:27.163Z,19.94
2022-09-14T04:09:53.914Z,19.94
2022-09-14T04:12:20.664Z,19.95
2022-09-14T04:14:47.417Z,19.96
2022-09-14T04:17:14.168Z,19.91
2022-09-14T04:19:42.058Z,20.00
2022-09-14T04:22:09.023Z,20.25
2022-09-14T04:24:35.863Z,20.23
2022-09-14T04:27:02.768Z,20.06
2022-09-14T04:29:30.488Z,20.13
2022-09-14T04:31:57.949Z,20.20
2022-09-14T04:34:24.798Z,20.17
2022-09-14T04:36:51.635Z,20.17
2022-09-14T04:39:18.474Z,20.21
2022-09-14T04:41:45.273Z,20.25
2022-09-14T04:44:12.544Z,20.07
2022-09-14T04:46:46.167Z,20.14
2022-09-14T04:49:16.472Z,20.17
2022-09-14T04:51:43.213Z,20.14
2022-09-14T04:54:17.303Z,20.11
2022-09-14T04:56:44.960Z,20.13
2022-09-14T04:59:12.515Z,20.15
2022-09-14T05:01:47.369Z,20.14
2022-09-14T05:04:14.298Z,20.13
2022-09-14T05:06:42.745Z,20.10
2022-09-14T05:09:16.390Z,20.09
2022-09-14T05:11:44.112Z,20.09
2022-09-14T05:14:14.998Z,20.10
2022-09-14T05:16:43.957Z,20.16
2022-09-14T05:19:18.251Z,20.14
2022-09-14T05:21:45.668Z,20.22
2022-09-14T05:24:17.142Z,20.29
2022-09-14T05:26:45.115Z,20.32
2022-09-14T05:29:18.026Z,20.36
2022-09-14T05:31:45.590Z,20.39
2022-09-14T05:34:13.118Z,20.40
2022-09-14T05:36:40.800Z,20.28
2022-09-14T05:39:08.397Z,20.35
2022-09-14T05:41:35.368Z,20.35
2022-09-14T05:44:02.351Z,20.24
2022-09-14T05:46:30.289Z,20.34
2022-09-14T05:48:57.077Z,20.28
2022-09-14T05:51:26.335Z,20.21
2022-09-14T05:53:56.841Z,20.54
2022-09-14T05:56:28.027Z,20.66
2022-09-14T05:58:55.354Z,20.42
2022-09-14T06:01:25.725Z,20.41
2022-09-14T06:04:02.272Z,20.46
2022-09-14T06:06:31.045Z,20.48
2022-09-14T06:08:57.945Z,20.54
2022-09-14T06:11:28.539Z,20.46
2022-09-14T06:13:56.857Z,20.42
2022-09-14T06:16:25.908Z,20.36
2022-09-14T06:18:55.398Z,20.61
2022-09-14T06:21:22.570Z,20.81
2022-09-14T06:23:51.041Z,20.55
2022-09-14T06:26:17.980Z,20.57
2022-09-14T06:28:44.989Z,20.59
2022-09-14T06:31:14.453Z,20.67
2022-09-14T06:33:48.526Z,20.77
2022-09-14T06:36:19.607Z,21.07
2022-09-14T06:38:49.653Z,21.25
2022-09-14T06:41:20.340Z,21.20
2022-09-14T06:43:47.979Z,21.05
2022-09-14T06:46:21.007Z,21.22
2022-09-14T06:49:02.618Z,21.48
2022-09-14T06:51:39.727Z,21.78
2022-09-14T06:54:07.894Z,21.69
2022-09-14T06:56:39.182Z,21.82
2022-09-14T06:59:08.594Z,21.55
2022-09-14T07:01:36.215Z,21.75
2022-09-14T07:04:04.013Z,21.91
2022-09-14T07:06:38.822Z,21.93
2022-09-14T07:09:05.771Z,22.12
2022-09-14T07:11:33.295Z,21.89
2022-09-14T07:14:00.149Z,21.53
2022-09-14T07:16:28.209Z,21.65
2022-09-14T07:18:57.532Z,21.73
2022-09-14T07:21:25.550Z,21.92
2022-09-14T07:23:52.832Z,22.09
2022-09-14T07:26:25.834Z,22.01
2022-09-14T07:29:01.492Z,22.07
2022-09-14T07:31:45.355Z,22.44
2022-09-14T07:34:13.215Z,22.18
2022-09-14T07:36:41.011Z,22.39
2022-09-14T07:39:12.340Z,22.60
2022-09-14T07:41:39.182Z,22.91
2022-09-14T07:44:08.040Z,23.13
2022-09-14T07:46:41.594Z,23.40
2022-09-14T07:49:10.155Z,23.61
2022-09-14T07:51:38.218Z,23.98
2022-09-14T07:54:07.215Z,24.12
2022-09-14T07:56:34.992Z,24.28
2022-09-14T07:59:30.904Z,24.56
2022-09-14T08:01:50.308Z,24.95
2022-09-14T08:04:17.543Z,24.72
2022-09-14T08:06:44.338Z,25.29
2022-09-14T08:09:11.144Z,25.39
2022-09-14T08:11:38.524Z,25.79
2022-09-14T08:14:11.726Z,25.72
2022-09-14T08:16:40.434Z,25.92
2022-09-14T08:19:13.456Z,26.25
2022-09-14T08:21:45.676Z,26.09
2022-09-14T08:24:17.535Z,26.53
2022-09-14T08:26:44.893Z,26.55
2022-09-14T08:29:13.671Z,26.09
2022-09-14T08:31:40.994Z,26.57
2022-09-14T08:34:08.608Z,26.29
2022-09-14T08:36:40.105Z,26.63
2022-09-14T08:39:10.418Z,26.64
2022-09-14T08:41:51.748Z,27.36
2022-09-14T08:44:43.068Z,28.20
2022-09-14T08:47:34.190Z,28.70
2022-09-14T08:50:09.318Z,28.50
2022-09-14T08:52:37.341Z,29.13
2022-09-14T08:55:34.521Z,29.67
2022-09-14T08:58:09.701Z,29.64
2022-09-14T09:01:18.285Z,30.32
2022-09-14T09:04:00.454Z,30.77
2022-09-14T09:07:05.810Z,30.49
2022-09-14T09:09:47.577Z,31.00
2022-09-14T09:12:37.580Z,30.57
2022-09-14T09:15:34.205Z,30.34
2022-09-14T09:18:20.531Z,30.43
2022-09-14T09:21:02.888Z,29.59
2022-09-14T09:23:33.070Z,29.97
2022-09-14T09:26:31.697Z,30.06
2022-09-14T09:29:01.514Z,29.99
2022-09-14T09:31:35.798Z,30.34
2022-09-14T09:34:03.974Z,30.44
2022-09-14T09:36:37.199Z,29.88
2022-09-14T09:39:05.530Z,30.12
2022-09-14T09:41:53.098Z,29.99
2022-09-14T09:44:20.217Z,30.32
2022-09-14T09:46:58.489Z,30.01
2022-09-14T09:49:35.327Z,30.55
2022-09-14T09:52:15.555Z,30.53
2022-09-14T09:54:50.112Z,30.68
2022-09-14T09:57:34.202Z,30.76
2022-09-14T10:00:22.178Z,30.45
2022-09-14T10:02:49.626Z,30.57
2022-09-14T10:05:31.577Z,30.38
2022-09-14T10:08:00.883Z,30.67
2022-09-14T10:10:39.174Z,30.88
2022-09-14T10:13:26.111Z,31.32
2022-09-14T10:15:54.027Z,32.08
2022-09-14T10:18:22.277Z,32.27
2022-09-14T10:20:54.812Z,32.58
2022-09-14T10:23:26.606Z,32.87
2022-09-14T10:26:16.054Z,32.81
2022-09-14T10:28:46.314Z,32.95
2022-09-14T10:31:26.120Z,32.76
2022-09-14T10:33:57.043Z,32.84
2022-09-14T10:36:38.040Z,33.06
2022-09-14T10:39:34.066Z,32.62
2022-09-14T10:42:17.623Z,32.78
2022-09-14T10:45:03.482Z,33.03
2022-09-14T10:48:12.903Z,33.52
2022-09-14T10:51:02.111Z,34.44
2022-09-14T10:53:50.211Z,34.63
2022-09-14T10:56:27.054Z,33.38
2022-09-14T11:00:09.772Z,33.13
2022-09-14T11:03:13.502Z,33.24
2022-09-14T11:06:20.774Z,32.45
2022-09-14T11:09:03.330Z,32.01
2022-09-14T11:11:41.617Z,32.47
2022-09-14T11:14:14.099Z,32.78
2022-09-14T11:17:08.520Z,32.85
2022-09-14T11:20:15.478Z,32.02
2022-09-14T11:23:14.533Z,32.60
2022-09-14T11:25:59.966Z,33.35
2022-09-14T11:29:06.582Z,33.98
2022-09-14T11:32:10.175Z,33.99
2022-09-14T11:35:01.092Z,34.04
2022-09-14T11:37:50.734Z,34.71
2022-09-14T11:40:32.993Z,34.47
2022-09-14T11:43:19.054Z,35.00
2022-09-14T11:46:10.274Z,34.94
2022-09-14T11:49:11.286Z,34.95
2022-09-14T11:52:08.163Z,34.24
2022-09-14T11:54:41.512Z,34.12
2022-09-14T11:57:18.616Z,34.09
2022-09-14T11:59:55.698Z,34.02
2022-09-14T12:02:25.724Z,35.42
2022-09-14T12:05:04.726Z,35.99
2022-09-14T12:08:01.470Z,36.58
2022-09-14T12:10:29.603Z,36.76
2022-09-14T12:13:06.827Z,37.13
2022-09-14T12:15:41.003Z,36.95
2022-09-14T12:18:07.713Z,36.92
2022-09-14T12:21:01.613Z,36.65
2022-09-14T12:23:41.947Z,35.86
2022-09-14T12:26:13.902Z,36.67
2022-09-14T12:28:48.361Z,36.79
2022-09-14T12:31:32.732Z,35.95
2022-09-14T12:34:16.233Z,35.34
2022-09-14T12:36:42.970Z,35.51
2022-09-14T12:39:34.219Z,34.44
2022-09-14T12:42:26.723Z,34.89
2022-09-14T12:44:54.015Z,34.30
2022-09-14T12:47:28.470Z,34.04
2022-09-14T12:50:17.664Z,34.17
2022-09-14T12:53:34.753Z,34.10
2022-09-14T12:56:39.243Z,33.57
2022-09-14T12:59:31.267Z,32.83
2022-09-14T13:02:25.570Z,32.14
2022-09-14T13:04:55.408Z,31.95
2022-09-14T13:07:23.163Z,31.82
2022-09-14T13:09:54.810Z,31.59
2022-09-14T13:12:41.602Z,30.93
2022-09-14T13:15:28.620Z,31.04
2022-09-14T13:18:05.143Z,30.79
2022-09-14T13:20:35.386Z,31.05
2022-09-14T13:23:03.252Z,30.86
2022-09-14T13:25:37.421Z,31.00
2022-09-14T13:28:11.260Z,31.38
2022-09-14T13:30:38.349Z,31.56
2022-09-14T13:33:05.252Z,31.77
2022-09-14T13:35:45.976Z,32.08
2022-09-14T13:38:22.224Z,31.74
2022-09-14T13:40:51.637Z,31.55
2022-09-14T13:43:21.011Z,31.43
2022-09-14T13:45:50.036Z,31.24
2022-09-14T13:48:20.059Z,31.13
2022-09-14T13:50:51.773Z,30.93
2022-09-14T13:53:48.952Z,30.94
2022-09-14T13:56:36.089Z,30.88
2022-09-14T13:59:08.591Z,30.56
2022-09-14T14:01:40.456Z,30.29
2022-09-14T14:04:35.926Z,30.00
2022-09-14T14:07:12.845Z,29.80
2022-09-14T14:09:50.594Z,29.54
2022-09-14T14:12:39.252Z,29.49
2022-09-14T14:15:11.050Z,29.37
2022-09-14T14:17:40.623Z,29.21
2022-09-14T14:20:33.387Z,29.10
2022-09-14T14:23:08.582Z,29.04
2022-09-14T14:25:44.827Z,29.15
2022-09-14T14:28:22.534Z,28.97
2022-09-14T14:30:50.435Z,28.91
2022-09-14T14:33:19.131Z,28.87
2022-09-14T14:35:48.390Z,28.34
2022-09-14T14:38:16.131Z,28.29
2022-09-14T14:40:43.936Z,28.43
2022-09-14T14:43:21.179Z,28.09
2022-09-14T14:45:48.811Z,28.23
2022-09-14T14:48:15.727Z,28.14
2022-09-14T14:50:42.511Z,28.36
2022-09-14T14:53:09.274Z,28.45
2022-09-14T14:55:37.456Z,28.71
2022-09-14T14:58:08.591Z,28.68
2022-09-14T15:00:38.324Z,28.20
2022-09-14T15:03:05.215Z,27.80
2022-09-14T15:05:32.280Z,27.98
2022-09-14T15:07:59.145Z,27.57
2022-09-14T15:10:29.075Z,27.61
2022-09-14T15:12:55.903Z,27.34
2022-09-14T15:15:26.278Z,26.98
2022-09-14T15:17:54.232Z,26.88
2022-09-14T15:20:22.042Z,26.63
2022-09-14T15:22:49.560Z,26.47
2022-09-14T15:25:18.732Z,26.39
2022-09-14T15:27:45.556Z,26.29
2022-09-14T15:30:13.963Z,26.14
2022-09-14T15:32:41.586Z,25.49
2022-09-14T15:35:13.813Z,25.49
2022-09-14T15:37:41.472Z,25.30
2022-09-14T15:40:09.773Z,25.25
2022-09-14T15:42:36.661Z,25.13
2022-09-14T15:45:04.494Z,25.14
2022-09-14T15:47:36.082Z,25.07
2022-09-14T15:50:04.452Z,24.76
2022-09-14T15:52:31.280Z,24.73
2022-09-14T15:54:58.033Z,24.70
2022-09-14T15:57:24.996Z,24.63
2022-09-14T15:59:54.418Z,24.48
2022-09-14T16:02:21.260Z,24.31
2022-09-14T16:04:48.052Z,24.44
2022-09-14T16:07:15.051Z,24.40
2022-09-14T16:09:42.391Z,24.26
2022-09-14T16:12:11.384Z,24.11
2022-09-14T16:14:38.314Z,23.42
2022-09-14T16:17:08.128Z,23.68
2022-09-14T16:19:35.102Z,23.69
2022-09-14T16:22:01.887Z,23.67
2022-09-14T16:24:29.064Z,23.54
2022-09-14T16:26:57.721Z,23.41
2022-09-14T16:29:25.439Z,22.68
2022-09-14T16:31:52.863Z,22.67
2022-09-14T16:34:26.434Z,23.02
2022-09-14T16:36:53.543Z,23.03
2022-09-14T16:39:23.771Z,23.24
2022-09-14T16:41:51.516Z,23.36
2022-09-14T16:44:21.561Z,23.31
2022-09-14T16:46:51.543Z,23.41
2022-09-14T16:49:21.343Z,23.39
2022-09-14T16:51:51.707Z,23.28
2022-09-14T16:54:21.616Z,23.30
2022-09-14T16:56:48.853Z,23.39
2022-09-14T16:59:17.458Z,23.30
2022-09-14T17:01:50.789Z,23.34
2022-09-14T17:04:21.554Z,23.26
2022-09-14T17:06:50.311Z,22.90
2022-09-14T17:09:21.633Z,23.01
2022-09-14T17:11:48.919Z,22.99
2022-09-14T17:14:18.850Z,22.90
2022-09-14T17:16:45.850Z,22.63
2022-09-14T17:19:13.390Z,22.58
2022-09-14T17:21:42.704Z,22.64
2022-09-14T17:24:10.752Z,22.75
2022-09-14T17:26:38.357Z,22.49
2022-09-14T17:29:06.702Z,22.29
2022-09-14T17:31:37.967Z,22.14
2022-09-14T17:34:07.229Z,22.28
2022-09-14T17:36:34.501Z,22.45
2022-09-14T17:39:07.890Z,22.53
2022-09-14T17:41:38.502Z,22.53
2022-09-14T17:44:07.276Z,22.54
2022-09-14T17:46:34.570Z,22.33
2022-09-14T17:49:04.622Z,22.51
2022-09-14T17:51:34.149Z,22.50
2022-09-14T17:54:01.877Z,22.49
2022-09-14T17:56:29.870Z,22.46
2022-09-14T17:59:06.763Z,22.49
2022-09-14T18:01:34.516Z,22.44
2022-09-14T18:04:11.590Z,22.39
2022-09-14T18:06:42.621Z,22.37
2022-09-14T18:09:15.326Z,22.33
2022-09-14T18:11:42.763Z,22.20
2022-09-14T18:14:12.651Z,22.21
2022-09-14T18:16:40.449Z,21.90
2022-09-14T18:19:07.533Z,21.84
2022-09-14T18:21:34.527Z,22.08
2022-09-14T18:24:01.503Z,22.04
2022-09-14T18:26:28.380Z,21.93
2022-09-14T18:28:58.895Z,21.91
2022-09-14T18:31:26.714Z,22.12
2022-09-14T18:34:00.142Z,22.14
2022-09-14T18:36:29.432Z,22.09
2022-09-14T18:38:58.149Z,22.05
2022-09-14T18:41:25.176Z,21.94
2022-09-14T18:43:53.403Z,21.99
2022-09-14T18:46:25.757Z,21.99
2022-09-14T18:48:57.727Z,21.96
2022-09-14T18:51:25.306Z,21.98
2022-09-14T18:54:03.154Z,21.93
2022-09-14T18:56:33.152Z,21.88
2022-09-14T18:59:02.031Z,21.98
2022-09-14T19:01:28.965Z,21.91
2022-09-14T19:03:56.444Z,21.71
2022-09-14T19:06:23.439Z,21.77
2022-09-14T19:08:50.760Z,21.60
2022-09-14T19:11:21.506Z,21.80
2022-09-14T19:13:50.737Z,21.74
2022-09-14T19:16:19.282Z,21.76
2022-09-14T19:18:48.573Z,21.76
2022-09-14T19:21:28.361Z,21.72
2022-09-14T19:24:07.930Z,21.57
2022-09-14T19:26:44.761Z,21.53
2022-09-14T19:29:14.018Z,21.66
2022-09-14T19:31:40.938Z,21.70
2022-09-14T19:34:07.808Z,21.71
2022-09-14T19:36:35.086Z,21.72
2022-09-14T19:39:02.988Z,21.75
2022-09-14T19:41:32.838Z,21.68
2022-09-14T19:44:01.168Z,21.74
2022-09-14T19:46:28.755Z,21.68
2022-09-14T19:48:55.898Z,21.69
2022-09-14T19:51:26.353Z,21.63
2022-09-14T19:53:56.444Z,21.48
2022-09-14T19:56:26.562Z,21.55
2022-09-14T19:58:56.732Z,21.50
2022-09-14T20:01:26.161Z,21.44
2022-09-14T20:03:53.523Z,21.42
2022-09-14T20:06:25.972Z,21.42
2022-09-14T20:08:56.873Z,21.26
2022-09-14T20:11:26.650Z,21.17
2022-09-14T20:13:55.737Z,21.11
2022-09-14T20:16:29.845Z,21.12
2022-09-14T20:18:59.422Z,21.15
2022-09-14T20:21:27.929Z,21.10
2022-09-14T20:24:17.454Z,21.09
2022-09-14T20:26:49.750Z,21.02
2022-09-14T20:29:19.258Z,20.95
2022-09-14T20:31:47.178Z,20.98
2022-09-14T20:34:16.513Z,20.86
2022-09-14T20:36:43.758Z,20.88
2022-09-14T20:39:10.892Z,20.70
2022-09-14T20:41:37.792Z,20.71
2022-09-14T20:44:05.580Z,20.62
2022-09-14T20:46:39.516Z,20.45
2022-09-14T20:49:13.143Z,20.42
2022-09-14T20:51:41.079Z,20.35
2022-09-14T20:54:12.254Z,20.30
2022-09-14T20:56:39.453Z,20.33
2022-09-14T20:59:11.092Z,20.40
2022-09-14T21:01:41.192Z,20.34
2022-09-14T21:04:21.005Z,20.39
2022-09-14T21:06:52.577Z,20.42
2022-09-14T21:09:22.627Z,20.42
2022-09-14T21:11:49.526Z,20.40
2022-09-14T21:14:17.971Z,20.34
2022-09-14T21:16:49.183Z,20.28
2022-09-14T21:19:21.328Z,20.24
2022-09-14T21:21:50.050Z,20.18
2022-09-14T21:24:19.279Z,20.13
2022-09-14T21:26:46.131Z,20.15
2022-09-14T21:29:18.099Z,20.20
2022-09-14T21:31:45.204Z,20.18
2022-09-14T21:34:12.746Z,20.22
2022-09-14T21:36:57.483Z,20.13
2022-09-14T21:39:26.954Z,20.13
2022-09-14T21:41:59.079Z,20.11
2022-09-14T21:44:31.423Z,20.03
2022-09-14T21:46:58.523Z,20.02
2022-09-14T21:49:25.354Z,20.14
2022-09-14T21:51:52.252Z,20.20
2022-09-14T21:54:20.294Z,20.26
2022-09-14T21:56:47.520Z,20.32
2022-09-14T21:59:18.154Z,20.38
2022-09-14T22:01:45.593Z,20.30
2022-09-14T22:04:24.518Z,20.46
2022-09-14T22:06:53.111Z,20.51
2022-09-14T22:09:24.768Z,20.50
2022-09-14T22:11:52.357Z,20.59
2022-09-14T22:14:23.902Z,20.58
2022-09-14T22:16:51.306Z,20.59
2022-09-14T22:19:23.644Z,20.65
2022-09-14T22:21:51.356Z,20.69
2022-09-14T22:24:22.788Z,20.73
2022-09-14T22:26:50.381Z,20.85
2022-09-14T22:29:18.115Z,20.92
2022-09-14T22:31:45.826Z,20.95
2022-09-14T22:34:13.279Z,20.91
2022-09-14T22:36:40.309Z,20.86
2022-09-14T22:39:08.227Z,20.85
2022-09-14T22:41:35.899Z,20.78
2022-09-14T22:44:04.011Z,20.83
2022-09-14T22:46:30.890Z,20.75
2022-09-14T22:48:57.768Z,20.73
2022-09-14T22:51:27.570Z,20.68
2022-09-14T22:53:55.127Z,20.63
2022-09-14T22:56:26.303Z,20.61
2022-09-14T22:58:53.585Z,20.50
2022-09-14T23:01:24.972Z,20.44
2022-09-14T23:04:00.858Z,20.44
2022-09-14T23:06:51.587Z,20.25
2022-09-14T23:09:21.866Z,20.19
2022-09-14T23:11:49.140Z,20.20
2022-09-14T23:14:17.065Z,20.24
2022-09-14T23:16:47.010Z,20.24
2022-09-14T23:19:16.797Z,20.36
2022-09-14T23:21:44.117Z,20.49
2022-09-14T23:24:11.286Z,20.52
2022-09-14T23:26:38.492Z,20.54
2022-09-14T23:29:09.143Z,20.49
2022-09-14T23:31:35.994Z,20.45
2022-09-14T23:34:04.871Z,20.41
2022-09-14T23:36:32.747Z,20.45
2022-09-14T23:38:59.599Z,20.48
2022-09-14T23:41:28.051Z,20.53
2022-09-14T23:43:55.264Z,20.72
2022-09-14T23:46:23.169Z,20.76
2022-09-14T23:48:50.420Z,20.80
2022-09-14T23:51:17.718Z,20.83
2022-09-14T23:53:44.854Z,20.76
2022-09-14T23:56:12.410Z,20.90
2022-09-14T23:58:41.352Z,20.87
